createdAt,value
2023-04-15T00:00:57.547Z,1.10
2023-04-15T00:03:24.925Z,1.10
2023-04-15T00:06:02.488Z,1.00
2023-04-15T00:08:30.009Z,1.40
2023-04-15T00:10:56.607Z,1.30
2023-04-15T00:13:23.685Z,1.10
2023-04-15T00:15:50.178Z,1.70
2023-04-15T00:18:16.648Z,1.80
2023-04-15T00:20:43.100Z,1.23
2023-04-15T00:23:09.598Z,1.60
2023-04-15T00:25:36.080Z,1.27
2023-04-15T00:28:02.738Z,1.00
2023-04-15T00:30:29.253Z,1.10
2023-04-15T00:32:55.777Z,0.97
2023-04-15T00:35:22.552Z,1.10
2023-04-15T00:37:50.448Z,1.23
2023-04-15T00:40:18.769Z,1.00
2023-04-15T00:42:45.687Z,1.00
2023-04-15T00:45:12.953Z,1.30
2023-04-15T00:47:41.752Z,1.00
2023-04-15T00:50:08.661Z,1.13
2023-04-15T00:52:35.177Z,1.00
2023-04-15T00:55:02.377Z,1.00
2023-04-15T00:57:29.697Z,1.07
2023-04-15T00:59:56.888Z,0.87
2023-04-15T01:02:24.195Z,1.00
2023-04-15T01:04:51.330Z,1.00
2023-04-15T01:07:17.911Z,1.00
2023-04-15T01:09:45.675Z,1.00
2023-04-15T01:12:12.898Z,1.10
2023-04-15T01:14:40.067Z,1.10
2023-04-15T01:17:07.454Z,1.00
2023-04-15T01:19:33.962Z,1.27
2023-04-15T01:22:00.866Z,1.20
2023-04-15T01:24:28.433Z,1.07
2023-04-15T01:26:54.981Z,1.17
2023-04-15T01:29:23.867Z,1.20
2023-04-15T01:31:52.033Z,1.10
2023-04-15T01:34:18.795Z,1.20
2023-04-15T01:36:45.345Z,1.10
2023-04-15T01:39:11.871Z,1.27
2023-04-15T01:41:38.392Z,0.90
2023-04-15T01:44:04.964Z,1.27
2023-04-15T01:46:32.476Z,1.10
2023-04-15T01:49:00.231Z,1.10
2023-04-15T01:51:27.526Z,1.37
2023-04-15T01:53:56.863Z,1.17
2023-04-15T01:56:26.611Z,1.40
2023-04-15T01:58:53.394Z,1.03
2023-04-15T02:01:20.254Z,1.40
2023-04-15T02:03:47.913Z,1.07
2023-04-15T02:06:15.295Z,1.13
2023-04-15T02:08:41.868Z,1.20
2023-04-15T02:11:08.570Z,1.30
2023-04-15T02:13:35.116Z,1.23
2023-04-15T02:16:01.675Z,0.97
2023-04-15T02:18:28.295Z,1.10
2023-04-15T02:20:56.703Z,1.20
2023-04-15T02:23:23.187Z,1.10
2023-04-15T02:25:54.279Z,1.20
2023-04-15T02:28:21.447Z,1.40
2023-04-15T02:30:52.781Z,1.40
2023-04-15T02:33:19.867Z,1.20
2023-04-15T02:35:46.581Z,1.17
2023-04-15T02:38:14.326Z,1.13
2023-04-15T02:40:41.076Z,1.20
2023-04-15T02:43:07.646Z,0.90
2023-04-15T02:45:35.138Z,1.23
2023-04-15T02:48:06.457Z,1.37
2023-04-15T02:50:33.441Z,1.33
2023-04-15T02:53:01.603Z,0.90
2023-04-15T02:55:29.254Z,1.10
2023-04-15T02:57:55.964Z,1.20
2023-04-15T03:00:25.273Z,1.40
2023-04-15T03:03:10.916Z,1.10
2023-04-15T03:05:39.209Z,1.30
2023-04-15T03:08:05.720Z,1.30
2023-04-15T03:10:32.298Z,1.60
2023-04-15T03:12:58.795Z,1.27
2023-04-15T03:15:25.300Z,1.40
2023-04-15T03:17:52.987Z,1.70
2023-04-15T03:20:19.852Z,1.23
2023-04-15T03:22:47.752Z,1.33
2023-04-15T03:25:14.329Z,1.20
2023-04-15T03:27:41.281Z,1.20
2023-04-15T03:30:09.019Z,1.10
2023-04-15T03:32:37.397Z,1.30
2023-04-15T03:35:06.540Z,1.20
2023-04-15T03:37:32.992Z,1.40
2023-04-15T03:39:59.492Z,1.27
2023-04-15T03:42:26.034Z,1.20
2023-04-15T03:44:52.538Z,1.57
2023-04-15T03:47:18.980Z,1.53
2023-04-15T03:49:45.466Z,1.40
2023-04-15T03:52:11.995Z,1.60
2023-04-15T03:54:38.435Z,1.40
2023-04-15T03:57:04.959Z,1.60
2023-04-15T03:59:31.429Z,1.80
2023-04-15T04:01:57.992Z,1.97
2023-04-15T04:04:24.613Z,1.90
2023-04-15T04:06:51.165Z,1.57
2023-04-15T04:09:17.618Z,1.90
2023-04-15T04:11:45.853Z,1.97
2023-04-15T04:14:12.336Z,2.10
2023-04-15T04:16:38.845Z,2.10
2023-04-15T04:19:05.324Z,2.23
2023-04-15T04:21:34.127Z,2.17
2023-04-15T04:24:00.675Z,1.90
2023-04-15T04:26:27.170Z,1.60
2023-04-15T04:28:53.714Z,2.03
2023-04-15T04:31:20.298Z,1.30
2023-04-15T04:33:46.767Z,1.80
2023-04-15T04:36:13.365Z,2.30
2023-04-15T04:38:39.821Z,2.53
2023-04-15T04:41:06.318Z,1.80
2023-04-15T04:43:32.803Z,2.03
2023-04-15T04:45:59.360Z,2.10
2023-04-15T04:48:26.315Z,2.33
2023-04-15T04:50:53.127Z,2.23
2023-04-15T04:53:19.705Z,2.33
2023-04-15T04:55:46.150Z,2.40
2023-04-15T04:58:12.668Z,2.50
2023-04-15T05:00:40.102Z,3.13
2023-04-15T05:03:07.186Z,2.60
2023-04-15T05:05:35.528Z,2.77
2023-04-15T05:08:01.996Z,2.50
2023-04-15T05:10:28.489Z,2.80
2023-04-15T05:12:54.948Z,2.73
2023-04-15T05:15:21.519Z,2.57
2023-04-15T05:17:48.000Z,2.70
2023-04-15T05:20:14.588Z,2.93
2023-04-15T05:22:41.244Z,2.80
2023-04-15T05:25:08.618Z,2.83
2023-04-15T05:27:35.159Z,2.60
2023-04-15T05:30:01.929Z,2.40
2023-04-15T05:32:28.542Z,2.77
2023-04-15T05:34:55.015Z,2.73
2023-04-15T05:37:22.434Z,3.20
2023-04-15T05:39:49.163Z,2.80
2023-04-15T05:42:15.633Z,3.00
2023-04-15T05:44:42.308Z,2.67
2023-04-15T05:47:10.058Z,2.40
2023-04-15T05:49:36.728Z,2.30
2023-04-15T05:52:03.319Z,2.40
2023-04-15T05:54:29.828Z,2.70
2023-04-15T05:56:57.672Z,3.50
2023-04-15T05:59:24.105Z,2.80
2023-04-15T06:01:52.174Z,2.40
2023-04-15T06:04:19.242Z,2.90
2023-04-15T06:06:46.460Z,2.77
2023-04-15T06:09:12.893Z,3.10
2023-04-15T06:11:41.298Z,2.93
2023-04-15T06:14:08.239Z,3.20
2023-04-15T06:16:36.668Z,3.30
2023-04-15T06:19:03.698Z,3.20
2023-04-15T06:21:30.186Z,3.10
2023-04-15T06:23:56.802Z,3.30
2023-04-15T06:26:23.296Z,3.60
2023-04-15T06:28:49.913Z,3.47
2023-04-15T06:31:16.594Z,2.87
2023-04-15T06:33:43.139Z,2.80
2023-04-15T06:36:09.753Z,2.93
2023-04-15T06:38:36.516Z,2.97
2023-04-15T06:41:03.404Z,2.60
2023-04-15T06:43:30.084Z,2.60
2023-04-15T06:45:56.868Z,3.00
2023-04-15T06:48:24.641Z,2.50
2023-04-15T06:50:51.145Z,2.30
2023-04-15T06:53:17.630Z,2.57
2023-04-15T06:55:44.168Z,2.30
2023-04-15T06:58:10.854Z,2.10
2023-04-15T07:00:39.195Z,2.60
2023-04-15T07:03:12.871Z,2.60
2023-04-15T07:05:39.698Z,2.13
2023-04-15T07:08:06.858Z,2.30
2023-04-15T07:10:34.029Z,2.27
2023-04-15T07:13:01.096Z,2.33
2023-04-15T07:15:27.558Z,2.57
2023-04-15T07:17:54.473Z,2.27
2023-04-15T07:20:20.970Z,3.33
2023-04-15T07:22:47.473Z,2.90
2023-04-15T07:25:14.138Z,2.50
2023-04-15T07:27:40.799Z,1.90
2023-04-15T07:30:07.505Z,2.40
2023-04-15T07:32:34.109Z,1.85
2023-04-15T07:35:01.119Z,1.90
2023-04-15T07:37:28.449Z,1.92
2023-04-15T07:39:55.054Z,1.90
2023-04-15T07:42:22.168Z,1.83
2023-04-15T07:44:48.663Z,2.28
2023-04-15T07:47:15.163Z,2.00
2023-04-15T07:49:41.959Z,2.08
2023-04-15T07:52:08.582Z,1.80
2023-04-15T07:54:35.102Z,1.85
2023-04-15T07:57:01.652Z,2.00
2023-04-15T07:59:30.179Z,2.20
2023-04-15T08:01:56.740Z,2.17
2023-04-15T08:04:23.275Z,2.03
2023-04-15T08:06:50.384Z,2.10
2023-04-15T08:09:16.880Z,2.03
2023-04-15T08:11:43.558Z,1.98
2023-04-15T08:14:10.018Z,3.35
2023-04-15T08:16:37.135Z,1.83
2023-04-15T08:19:05.899Z,1.90
2023-04-15T08:21:32.753Z,2.42
2023-04-15T08:24:00.587Z,2.13
2023-04-15T08:26:27.595Z,2.03
2023-04-15T08:28:54.190Z,1.85
2023-04-15T08:31:20.958Z,2.30
2023-04-15T08:33:47.580Z,2.53
2023-04-15T08:36:14.212Z,3.30
2023-04-15T08:38:41.083Z,2.20
2023-04-15T08:41:11.925Z,2.50
2023-04-15T08:43:44.148Z,2.88
2023-04-15T08:46:10.898Z,3.50
2023-04-15T08:48:38.471Z,3.45
2023-04-15T08:51:05.097Z,3.88
2023-04-15T08:53:31.599Z,3.50
2023-04-15T08:56:00.129Z,3.30
2023-04-15T08:58:26.755Z,3.50
2023-04-15T09:00:53.466Z,3.20
2023-04-15T09:03:33.711Z,3.28
2023-04-15T09:06:00.561Z,3.35
2023-04-15T09:08:27.140Z,3.42
2023-04-15T09:10:53.953Z,2.90
2023-04-15T09:13:20.433Z,3.20
2023-04-15T09:15:47.035Z,3.20
2023-04-15T09:18:14.107Z,3.00
2023-04-15T09:20:44.293Z,3.00
2023-04-15T09:23:14.542Z,2.85
2023-04-15T09:25:44.292Z,2.80
2023-04-15T09:28:11.389Z,2.70
2023-04-15T09:30:38.076Z,2.40
2023-04-15T09:33:08.465Z,2.65
2023-04-15T09:35:38.265Z,2.75
2023-04-15T09:38:05.920Z,2.55
2023-04-15T09:40:39.546Z,2.35
2023-04-15T09:43:06.678Z,2.65
2023-04-15T09:45:33.914Z,2.20
2023-04-15T09:48:14.393Z,2.47
2023-04-15T09:50:41.346Z,2.40
2023-04-15T09:53:09.389Z,2.60
2023-04-15T09:55:35.909Z,2.20
2023-04-15T09:58:02.468Z,2.40
2023-04-15T10:00:29.635Z,2.30
2023-04-15T10:03:17.386Z,2.10
2023-04-15T10:05:44.373Z,2.25
2023-04-15T10:08:10.988Z,2.30
2023-04-15T10:10:37.787Z,2.40
2023-04-15T10:13:04.416Z,2.22
2023-04-15T10:15:31.533Z,2.42
2023-04-15T10:17:58.405Z,1.98
2023-04-15T10:20:25.002Z,2.42
2023-04-15T10:22:51.530Z,2.47
2023-04-15T10:25:18.406Z,2.90
2023-04-15T10:27:45.228Z,2.97
2023-04-15T10:30:12.983Z,2.80
2023-04-15T10:32:39.719Z,2.70
2023-04-15T10:35:06.707Z,2.30
2023-04-15T10:37:34.560Z,2.50
2023-04-15T10:40:01.060Z,2.10
2023-04-15T10:42:33.884Z,2.45
2023-04-15T10:45:00.316Z,2.30
2023-04-15T10:47:26.857Z,2.17
2023-04-15T10:50:01.047Z,2.72
2023-04-15T10:52:28.679Z,2.80
2023-04-15T10:55:10.456Z,2.50
2023-04-15T10:57:40.688Z,2.30
2023-04-15T11:00:13.466Z,2.47
2023-04-15T11:02:41.831Z,2.22
2023-04-15T11:05:08.962Z,2.30
2023-04-15T11:07:36.957Z,1.90
2023-04-15T11:10:04.835Z,1.65
2023-04-15T11:12:37.314Z,1.80
2023-04-15T11:15:22.534Z,1.65
2023-04-15T11:17:49.012Z,1.60
2023-04-15T11:20:16.046Z,1.63
2023-04-15T11:22:49.062Z,1.80
2023-04-15T11:25:22.918Z,1.70
2023-04-15T11:27:50.209Z,1.50
2023-04-15T11:30:18.152Z,1.63
2023-04-15T11:32:44.712Z,1.20
2023-04-15T11:35:11.297Z,1.50
2023-04-15T11:37:37.751Z,1.63
2023-04-15T11:40:04.545Z,2.00
2023-04-15T11:42:39.436Z,2.10
2023-04-15T11:45:14.343Z,1.05
2023-04-15T11:47:41.703Z,1.20
2023-04-15T11:50:18.179Z,1.38
2023-04-15T11:52:54.815Z,1.50
2023-04-15T11:55:21.935Z,1.50
2023-04-15T11:57:48.416Z,1.13
2023-04-15T12:00:16.903Z,1.20
2023-04-15T12:02:43.892Z,1.00
2023-04-15T12:05:12.407Z,1.05
2023-04-15T12:07:57.770Z,1.08
2023-04-15T12:10:25.164Z,1.17
2023-04-15T12:12:53.337Z,0.95
2023-04-15T12:15:26.149Z,0.80
2023-04-15T12:17:54.928Z,0.80
2023-04-15T12:20:25.589Z,0.70
2023-04-15T12:22:52.464Z,0.88
2023-04-15T12:25:19.620Z,0.80
2023-04-15T12:27:51.725Z,0.82
2023-04-15T12:30:18.725Z,1.00
2023-04-15T12:32:46.303Z,1.20
2023-04-15T12:35:13.340Z,0.98
2023-04-15T12:37:40.620Z,0.93
2023-04-15T12:40:08.722Z,1.02
2023-04-15T12:42:35.777Z,0.80
2023-04-15T12:45:02.886Z,1.00
2023-04-15T12:47:29.962Z,0.90
2023-04-15T12:49:57.085Z,0.98
2023-04-15T12:52:25.378Z,1.00
2023-04-15T12:54:53.469Z,1.23
2023-04-15T12:57:20.389Z,1.10
2023-04-15T12:59:47.779Z,1.10
2023-04-15T13:02:14.753Z,1.00
2023-04-15T13:04:42.109Z,1.45
2023-04-15T13:07:09.445Z,1.48
2023-04-15T13:09:36.494Z,1.92
2023-04-15T13:12:05.542Z,1.80
2023-04-15T13:14:32.410Z,1.48
2023-04-15T13:16:59.641Z,1.80
2023-04-15T13:19:27.038Z,2.22
2023-04-15T13:21:54.014Z,2.00
2023-04-15T13:24:21.252Z,2.10
2023-04-15T13:26:50.135Z,2.20
2023-04-15T13:29:17.346Z,2.35
2023-04-15T13:31:44.372Z,2.30
2023-04-15T13:34:11.477Z,2.28
2023-04-15T13:36:38.220Z,2.50
2023-04-15T13:39:05.833Z,2.90
2023-04-15T13:41:32.810Z,2.95
2023-04-15T13:44:00.018Z,3.60
2023-04-15T13:46:27.339Z,3.70
2023-04-15T13:48:54.213Z,3.63
2023-04-15T13:51:21.258Z,4.30
2023-04-15T13:53:48.209Z,4.03
2023-04-15T13:56:15.185Z,5.13
2023-04-15T13:58:43.528Z,5.40
2023-04-15T14:01:10.718Z,4.85
2023-04-15T14:03:38.026Z,4.72
2023-04-15T14:06:05.995Z,5.30
2023-04-15T14:08:33.198Z,5.07
2023-04-15T14:11:00.250Z,4.90
2023-04-15T14:13:27.171Z,5.05
2023-04-15T14:15:54.262Z,4.88
2023-04-15T14:18:21.270Z,5.47
2023-04-15T14:20:48.284Z,5.70
2023-04-15T14:23:15.261Z,5.43
2023-04-15T14:25:42.286Z,5.22
2023-04-15T14:28:09.049Z,5.78
2023-04-15T14:30:36.248Z,6.25
2023-04-15T14:33:04.088Z,5.13
2023-04-15T14:35:31.322Z,4.60
2023-04-15T14:37:58.136Z,4.33
2023-04-15T14:40:25.150Z,3.60
2023-04-15T14:42:52.079Z,3.50
2023-04-15T14:45:19.100Z,3.33
2023-04-15T14:47:46.116Z,3.23
2023-04-15T14:50:13.197Z,3.70
2023-04-15T14:52:40.198Z,3.77
2023-04-15T14:55:10.787Z,4.10
2023-04-15T14:57:38.125Z,4.30
2023-04-15T15:00:05.636Z,4.20
2023-04-15T15:02:38.951Z,4.17
2023-04-15T15:05:09.829Z,4.30
2023-04-15T15:07:44.252Z,4.33
2023-04-15T15:10:16.930Z,4.67
2023-04-15T15:13:06.470Z,4.17
2023-04-15T15:15:34.309Z,5.50
2023-04-15T15:18:04.767Z,4.50
2023-04-15T15:20:37.025Z,4.97
2023-04-15T15:23:10.070Z,5.27
2023-04-15T15:25:39.537Z,4.70
2023-04-15T15:28:11.024Z,5.97
2023-04-15T15:30:38.320Z,5.57
2023-04-15T15:33:05.975Z,5.67
2023-04-15T15:35:41.753Z,6.30
2023-04-15T15:38:14.025Z,6.50
2023-04-15T15:40:50.420Z,6.37
2023-04-15T15:43:30.335Z,7.20
2023-04-15T15:45:59.016Z,7.00
2023-04-15T15:48:26.594Z,6.57
2023-04-15T15:50:54.923Z,7.27
2023-04-15T15:53:26.310Z,6.97
2023-04-15T15:55:54.072Z,7.00
2023-04-15T15:58:24.410Z,7.50
2023-04-15T16:00:52.412Z,7.33
2023-04-15T16:03:32.525Z,7.73
2023-04-15T16:05:59.745Z,7.03
2023-04-15T16:08:26.914Z,7.10
2023-04-15T16:10:54.287Z,8.40
2023-04-15T16:13:21.562Z,8.40
2023-04-15T16:15:50.411Z,9.03
2023-04-15T16:18:17.862Z,8.73
2023-04-15T16:20:45.188Z,9.27
2023-04-15T16:23:13.454Z,9.60
2023-04-15T16:25:42.328Z,9.70
2023-04-15T16:28:22.668Z,10.30
2023-04-15T16:30:53.342Z,10.20
2023-04-15T16:33:20.601Z,10.67
2023-04-15T16:35:47.827Z,10.87
2023-04-15T16:38:14.984Z,10.13
2023-04-15T16:40:42.567Z,9.43
2023-04-15T16:43:12.067Z,9.63
2023-04-15T16:45:39.305Z,8.73
2023-04-15T16:48:06.749Z,10.27
2023-04-15T16:50:34.115Z,10.17
2023-04-15T16:53:01.821Z,9.97
2023-04-15T16:55:28.767Z,11.20
2023-04-15T16:58:03.197Z,12.97
2023-04-15T17:00:32.122Z,12.43
2023-04-15T17:03:00.639Z,13.27
2023-04-15T17:05:27.946Z,14.43
2023-04-15T17:07:55.390Z,16.43
2023-04-15T17:10:22.489Z,15.40
2023-04-15T17:12:52.364Z,14.73
2023-04-15T17:15:20.076Z,15.50
2023-04-15T17:17:47.452Z,14.00
2023-04-15T17:20:14.888Z,15.13
2023-04-15T17:22:42.102Z,15.53
2023-04-15T17:25:09.626Z,13.60
2023-04-15T17:27:36.861Z,13.73
2023-04-15T17:30:04.147Z,13.93
2023-04-15T17:32:34.984Z,15.33
2023-04-15T17:35:03.145Z,14.63
2023-04-15T17:37:30.190Z,12.13
2023-04-15T17:39:57.219Z,13.97
2023-04-15T17:42:24.294Z,14.63
2023-04-15T17:44:53.488Z,13.00
2023-04-15T17:47:20.575Z,12.57
2023-04-15T17:49:47.969Z,14.20
2023-04-15T17:52:14.977Z,14.27
2023-04-15T17:54:41.961Z,11.73
2023-04-15T17:57:09.173Z,14.13
2023-04-15T17:59:36.135Z,13.37
2023-04-15T18:02:03.183Z,11.30
2023-04-15T18:04:30.464Z,11.70
2023-04-15T18:06:57.626Z,11.73
2023-04-15T18:09:24.230Z,12.50
2023-04-15T18:11:50.852Z,10.83
2023-04-15T18:14:30.692Z,11.90
2023-04-15T18:16:59.935Z,10.17
2023-04-15T18:19:26.443Z,12.07
2023-04-15T18:21:53.124Z,10.87
2023-04-15T18:24:19.675Z,12.57
2023-04-15T18:26:48.364Z,11.73
2023-04-15T18:29:15.573Z,8.13
2023-04-15T18:31:43.378Z,10.93
2023-04-15T18:34:10.168Z,11.63
2023-04-15T18:36:36.712Z,12.13
2023-04-15T18:39:04.329Z,11.63
2023-04-15T18:41:31.048Z,11.93
2023-04-15T18:43:57.498Z,11.40
2023-04-15T18:46:23.980Z,11.27
2023-04-15T18:48:50.804Z,12.10
2023-04-15T18:51:17.270Z,11.50
2023-04-15T18:53:44.125Z,11.53
2023-04-15T18:56:10.935Z,9.13
2023-04-15T18:59:25.440Z,10.80
2023-04-15T19:01:23.981Z,10.47
2023-04-15T19:03:50.755Z,10.23
2023-04-15T19:06:17.232Z,10.73
2023-04-15T19:08:43.711Z,11.23
2023-04-15T19:11:10.505Z,12.23
2023-04-15T19:13:37.072Z,11.87
2023-04-15T19:16:03.639Z,12.90
2023-04-15T19:18:30.188Z,13.67
2023-04-15T19:20:57.304Z,13.47
2023-04-15T19:23:23.948Z,15.47
2023-04-15T19:25:50.499Z,16.43
2023-04-15T19:28:16.988Z,16.77
2023-04-15T19:30:43.479Z,16.80
2023-04-15T19:33:09.972Z,13.97
2023-04-15T19:35:38.221Z,18.40
2023-04-15T19:38:04.880Z,18.27
2023-04-15T19:40:31.368Z,19.83
2023-04-15T19:42:57.847Z,18.73
2023-04-15T19:45:24.304Z,18.90
2023-04-15T19:47:50.948Z,19.40
2023-04-15T19:50:19.291Z,20.17
2023-04-15T19:52:45.934Z,19.27
2023-04-15T19:55:12.432Z,16.60
2023-04-15T19:57:38.888Z,16.20
2023-04-15T20:00:06.969Z,17.33
2023-04-15T20:02:34.513Z,18.37
2023-04-15T20:05:01.292Z,15.93
2023-04-15T20:07:28.199Z,16.80
2023-04-15T20:09:54.738Z,16.17
2023-04-15T20:12:51.590Z,17.53
2023-04-15T20:15:08.868Z,17.57
2023-04-15T20:17:36.409Z,17.07
2023-04-15T20:20:06.582Z,15.47
2023-04-15T20:22:33.349Z,14.50
2023-04-15T20:25:03.246Z,15.57
2023-04-15T20:27:30.008Z,15.70
2023-04-15T20:29:56.473Z,15.30
2023-04-15T20:32:24.298Z,15.43
2023-04-15T20:34:51.487Z,14.77
2023-04-15T20:37:18.106Z,15.97
2023-04-15T20:39:44.658Z,18.43
2023-04-15T20:42:11.275Z,17.90
2023-04-15T20:44:41.010Z,18.70
2023-04-15T20:47:07.762Z,17.47
2023-04-15T20:49:38.047Z,20.17
2023-04-15T20:52:05.569Z,20.40
2023-04-15T20:54:32.156Z,19.73
2023-04-15T20:56:59.201Z,20.47
2023-04-15T20:59:25.751Z,18.73
2023-04-15T21:01:52.324Z,17.00
2023-04-15T21:04:19.554Z,17.47
2023-04-15T21:06:46.106Z,19.67
2023-04-15T21:09:12.637Z,19.50
2023-04-15T21:11:57.495Z,20.03
2023-04-15T21:14:25.824Z,20.47
2023-04-15T21:16:52.625Z,19.50
2023-04-15T21:19:19.087Z,21.77
2023-04-15T21:21:45.582Z,17.97
2023-04-15T21:24:12.110Z,20.03
2023-04-15T21:26:38.741Z,22.57
2023-04-15T21:29:07.209Z,22.57
2023-04-15T21:31:35.580Z,21.27
2023-04-15T21:34:02.205Z,21.97
2023-04-15T21:36:28.697Z,20.83
2023-04-15T21:38:55.438Z,21.60
2023-04-15T21:41:21.990Z,16.80
2023-04-15T21:43:48.559Z,20.00
2023-04-15T21:46:22.440Z,19.03
2023-04-15T21:48:52.395Z,20.10
2023-04-15T21:51:19.051Z,20.17
2023-04-15T21:53:45.685Z,19.37
2023-04-15T21:56:12.289Z,18.60
2023-04-15T21:58:38.802Z,20.03
2023-04-15T22:01:05.590Z,17.03
2023-04-15T22:03:34.082Z,17.03
2023-04-15T22:06:01.807Z,16.07
2023-04-15T22:08:28.345Z,16.57
2023-04-15T22:10:54.922Z,16.87
2023-04-15T22:13:21.377Z,15.97
2023-04-15T22:15:48.269Z,14.50
2023-04-15T22:18:14.838Z,14.57
2023-04-15T22:20:41.530Z,14.63
2023-04-15T22:23:08.939Z,14.50
2023-04-15T22:25:37.148Z,13.77
2023-04-15T22:28:06.877Z,13.57
2023-04-15T22:30:34.434Z,13.13
2023-04-15T22:33:01.533Z,13.13
2023-04-15T22:35:28.158Z,13.63
2023-04-15T22:37:54.686Z,14.50
2023-04-15T22:40:21.182Z,14.63
2023-04-15T22:42:47.606Z,14.80
2023-04-15T22:45:14.196Z,15.10
2023-04-15T22:47:40.877Z,14.93
2023-04-15T22:50:07.660Z,15.97
2023-04-15T22:52:34.116Z,15.93
2023-04-15T22:55:00.615Z,14.20
2023-04-15T22:57:27.948Z,16.37
2023-04-15T22:59:54.631Z,16.40
2023-04-15T23:02:21.175Z,17.47
2023-04-15T23:04:48.031Z,15.63
2023-04-15T23:07:14.600Z,15.67
2023-04-15T23:09:41.095Z,15.50
2023-04-15T23:12:07.647Z,18.57
2023-04-15T23:14:34.162Z,17.07
2023-04-15T23:17:00.946Z,16.37
2023-04-15T23:19:27.424Z,17.57
2023-04-15T23:21:53.891Z,16.37
2023-04-15T23:24:20.611Z,15.33
2023-04-15T23:26:47.183Z,14.97
2023-04-15T23:29:14.148Z,18.63
2023-04-15T23:31:41.780Z,17.73
2023-04-15T23:34:08.366Z,17.07
2023-04-15T23:36:34.908Z,19.93
2023-04-15T23:39:01.491Z,19.70
2023-04-15T23:41:28.012Z,18.97
2023-04-15T23:43:54.505Z,18.20
2023-04-15T23:46:21.184Z,20.47
2023-04-15T23:48:49.058Z,22.93
2023-04-15T23:51:16.013Z,19.53
2023-04-15T23:53:43.083Z,21.40
2023-04-15T23:56:09.840Z,20.97
2023-04-15T23:58:36.533Z,21.50
